This is the latest recevied weather packets stored in our database for station/object OK2JV-13. If no packets are shown the sender has not sent any weather packets the latest 10 day(s).
| Time | Temp. | Humidity | Pressure | Rain* | Wind** | Luminosity | Snow |
|---|---|---|---|---|---|---|---|
| 1787396244 | 19.44° C | 54% | 1012.3 hPa | - | - | - | - |
| 1787395640 | 18.89° C | 54% | 1012.5 hPa | - | - | - | - |
| 1787395038 | 17.78° C | 56% | 1012.5 hPa | - | - | - | - |
| 1787394432 | 17.78° C | 55% | 1012.5 hPa | - | - | - | - |
| 1787393827 | 18.33° C | 54% | 1012.4 hPa | - | - | - | - |
| 1787393223 | 18.89° C | 54% | 1012.4 hPa | - | - | - | - |
| 1787392619 | 18.33° C | 55% | 1012.3 hPa | - | - | - | - |
| 1787392015 | 17.78° C | 58% | 1012.4 hPa | - | - | - | - |
| 1787391412 | 17.22° C | 61% | 1012.5 hPa | - | - | - | - |
| 1787390807 | 17.22° C | 63% | 1012.3 hPa | - | - | - | - |
| 1787389599 | 17.22° C | 63% | 1012.2 hPa | - | - | - | - |
| 1787388997 | 17.78° C | 61% | 1012 hPa | - | - | - | - |
| 1787388391 | 17.78° C | 60% | 1012.1 hPa | - | - | - | - |
| 1787387787 | 17.78° C | 62% | 1011.8 hPa | - | - | - | - |
| 1787387183 | 17.22° C | 67% | 1011.8 hPa | - | - | - | - |
| 1787386579 | 16.67° C | 70% | 1011.7 hPa | - | - | - | - |
| 1787385977 | 16.11° C | 73% | 1011.6 hPa | - | - | - | - |
| 1787385370 | 15.56° C | 74% | 1011.5 hPa | - | - | - | - |
| 1787384768 | 14.44° C | 75% | 1011.6 hPa | - | - | - | - |
| 1787384161 | 14.44° C | 76% | 1011.4 hPa | - | - | - | - |
| 1787383557 | 13.89° C | 77% | 1011.5 hPa | - | - | - | - |
| 1787382955 | 13.89° C | 78% | 1011.5 hPa | - | - | - | - |
| 1787382350 | 13.33° C | 80% | 1011.3 hPa | - | - | - | - |
| 1787381745 | 13.33° C | 81% | 1010.9 hPa | - | - | - | - |
| 1787381141 | 12.78° C | 82% | 1010.9 hPa | - | - | - | - |
* Rain since midnight (hover to see other rain measurements)
** Current wind speed in m/s (hover to see current wind gust speed)